Time;durP1;ratioP1;P1;durP2;ratioP2;P2;SDS_P1;SDS_P2;PMS_P1;PMS_P2;Temp;Humidity;BMP_temperature;BMP_pressure;BME280_temperature;BME280_humidity;BME280_pressure;Samples;Min_cycle;Max_cycle;Signal;HPM_P1;HPM_P2
2022/03/10 00:00:33;;;;;;;14.90;8.47;;;6.00;99.90;;;;;;5058657;28;20471;-44
2022/03/10 00:03:01;;;;;;;20.00;10.40;;;6.00;99.90;;;;;;5058715;28;20446;-45
2022/03/10 00:05:27;;;;;;;20.93;8.13;;;5.90;99.90;;;;;;5058520;28;20469;-49
2022/03/10 00:07:54;;;;;;;19.07;10.17;;;5.80;99.90;;;;;;5058588;28;20420;-46
2022/03/10 00:10:21;;;;;;;15.00;8.33;;;5.80;99.90;;;;;;5058490;28;20424;-47
2022/03/10 00:12:53;;;;;;;21.00;9.13;;;5.80;99.90;;;;;;5058390;28;20474;-42
2022/03/10 00:15:21;;;;;;;17.77;8.90;;;5.70;99.90;;;;;;5058433;28;20491;-47
2022/03/10 00:17:51;;;;;;;18.23;9.73;;;5.70;99.90;;;;;;5058047;28;20436;-47
2022/03/10 00:20:20;;;;;;;19.53;10.33;;;5.60;99.90;;;;;;5058368;28;20447;-44
2022/03/10 00:22:48;;;;;;;16.93;9.20;;;5.60;99.90;;;;;;5058378;28;20416;-51
2022/03/10 00:25:17;;;;;;;16.63;8.90;;;5.50;99.90;;;;;;5058283;28;20467;-50
2022/03/10 00:27:44;;;;;;;24.40;9.87;;;5.40;99.90;;;;;;5058283;28;20477;-48
2022/03/10 00:30:11;;;;;;;20.70;8.80;;;5.40;99.90;;;;;;5058169;28;20471;-49
2022/03/10 00:32:45;;;;;;;18.10;9.00;;;5.30;99.90;;;;;;5058074;28;20444;-50
2022/03/10 00:35:17;;;;;;;15.97;9.20;;;5.30;99.90;;;;;;5061924;28;20439;-47
2022/03/10 00:37:46;;;;;;;17.90;9.63;;;5.30;99.90;;;;;;5064985;28;20404;-47
2022/03/10 00:40:13;;;;;;;18.27;9.33;;;5.20;99.90;;;;;;5064954;28;20443;-49
2022/03/10 00:42:41;;;;;;;17.00;8.77;;;5.20;99.90;;;;;;5064697;28;20463;-47
2022/03/10 00:45:09;;;;;;;15.03;7.90;;;5.20;99.90;;;;;;5064727;28;20415;-46
2022/03/10 00:47:36;;;;;;;13.33;9.13;;;5.20;99.90;;;;;;5064618;28;20420;-46
2022/03/10 00:50:04;;;;;;;14.40;10.43;;;5.20;99.90;;;;;;5064672;28;20420;-48
2022/03/10 00:52:33;;;;;;;20.87;8.07;;;5.10;99.90;;;;;;5064633;28;20471;-44
2022/03/10 00:55:01;;;;;;;15.40;8.40;;;5.10;99.90;;;;;;5064584;28;20510;-46
2022/03/10 00:57:31;;;;;;;20.63;10.30;;;5.10;99.90;;;;;;5064754;28;20423;-45
2022/03/10 00:59:58;;;;;;;18.80;10.37;;;5.10;99.90;;;;;;5064587;28;20404;-49
2022/03/10 01:02:25;;;;;;;19.17;9.93;;;5.10;99.90;;;;;;5064625;28;20405;-45
2022/03/10 01:04:51;;;;;;;15.07;8.53;;;5.20;99.90;;;;;;5064509;28;20428;-43
2022/03/10 01:07:18;;;;;;;14.20;8.83;;;5.20;99.90;;;;;;5059770;28;20537;-52
2022/03/10 01:09:45;;;;;;;22.63;9.63;;;5.10;99.90;;;;;;5059195;28;20440;-57
2022/03/10 01:12:13;;;;;;;16.27;9.60;;;5.10;99.90;;;;;;5059528;28;20483;-53
2022/03/10 01:14:39;;;;;;;17.97;9.43;;;5.10;99.90;;;;;;5059517;28;20471;-54
2022/03/10 01:17:06;;;;;;;17.83;9.43;;;5.10;99.90;;;;;;5059412;28;20477;-56
2022/03/10 01:19:33;;;;;;;20.40;11.50;;;5.10;99.90;;;;;;5056774;28;20472;-57
2022/03/10 01:21:59;;;;;;;18.03;10.63;;;5.00;99.90;;;;;;5043576;28;20912;-56
2022/03/10 01:24:26;;;;;;;14.07;8.77;;;5.10;99.90;;;;;;5043533;28;20467;-60
2022/03/10 01:26:53;;;;;;;22.93;10.53;;;5.00;99.90;;;;;;5040679;28;20479;-60
2022/03/10 01:29:21;;;;;;;19.30;9.50;;;4.90;99.90;;;;;;5040742;28;20512;-60
2022/03/10 01:31:48;;;;;;;17.87;10.03;;;4.90;99.90;;;;;;5040516;28;20534;-59
2022/03/10 01:34:14;;;;;;;19.83;11.13;;;4.90;99.90;;;;;;5041498;28;20510;-61
2022/03/10 01:36:41;;;;;;;24.17;10.73;;;4.90;99.90;;;;;;5040938;28;20451;-62
2022/03/10 01:39:08;;;;;;;21.57;10.47;;;4.80;99.90;;;;;;5040714;28;20493;-60
2022/03/10 01:41:35;;;;;;;20.27;10.57;;;4.80;99.90;;;;;;5042311;28;20448;-60
2022/03/10 01:44:04;;;;;;;24.33;10.80;;;4.70;99.90;;;;;;5046358;28;20526;-60
2022/03/10 01:46:33;;;;;;;27.33;11.13;;;4.70;99.90;;;;;;5043492;28;20546;-59
2022/03/10 01:49:00;;;;;;;23.97;11.43;;;4.60;99.90;;;;;;5042975;28;20460;-60
2022/03/10 01:51:27;;;;;;;19.13;10.43;;;4.60;99.90;;;;;;5044163;28;20428;-60
2022/03/10 01:53:54;;;;;;;17.70;10.23;;;4.60;99.90;;;;;;5042639;28;20448;-60
2022/03/10 01:56:22;;;;;;;20.10;10.73;;;4.60;99.90;;;;;;5043662;28;20468;-59
2022/03/10 01:58:50;;;;;;;22.40;11.23;;;4.60;99.90;;;;;;5043486;28;20459;-60
2022/03/10 02:01:17;;;;;;;19.73;11.77;;;4.50;99.90;;;;;;5042902;28;20850;-60
2022/03/10 02:03:46;;;;;;;16.00;8.90;;;4.50;99.90;;;;;;5042990;28;20428;-60
2022/03/10 02:06:14;;;;;;;24.73;13.03;;;4.60;99.90;;;;;;5042740;28;20510;-59
2022/03/10 02:11:25;;;;;;;22.57;11.03;;;4.50;99.90;;;;;;5043212;28;20415;-59
2022/03/10 02:13:52;;;;;;;21.03;10.17;;;4.50;99.90;;;;;;5043653;28;20471;-60
2022/03/10 02:19:16;;;;;;;22.83;12.13;;;4.50;99.90;;;;;;4982598;28;20534;-60
2022/03/10 02:21:44;;;;;;;24.37;11.90;;;4.40;99.90;;;;;;5029802;28;20437;-60
2022/03/10 02:24:12;;;;;;;20.67;10.73;;;4.40;99.90;;;;;;5043154;28;20600;-60
2022/03/10 02:26:40;;;;;;;19.13;12.20;;;4.30;99.90;;;;;;5043027;28;20476;-60
2022/03/10 02:29:07;;;;;;;22.07;12.40;;;4.30;99.90;;;;;;5042916;28;20490;-60
2022/03/10 02:31:34;;;;;;;24.70;12.90;;;4.20;99.90;;;;;;5042322;28;20452;-58
2022/03/10 02:34:01;;;;;;;26.93;14.43;;;4.20;99.90;;;;;;5043929;28;20510;-59
2022/03/10 02:36:27;;;;;;;26.73;13.20;;;4.20;99.90;;;;;;5045462;28;20487;-58
2022/03/10 02:38:54;;;;;;;34.53;14.03;;;4.20;99.90;;;;;;5043329;28;20479;-59
2022/03/10 02:41:22;;;;;;;27.83;13.23;;;4.20;99.90;;;;;;5039975;28;21022;-60
2022/03/10 02:43:49;;;;;;;22.03;12.90;;;4.20;99.90;;;;;;5039700;28;20448;-60
2022/03/10 02:46:15;;;;;;;24.43;12.47;;;4.20;99.90;;;;;;5039863;28;20763;-61
2022/03/10 02:48:42;;;;;;;26.73;12.33;;;4.20;99.90;;;;;;5039215;28;20475;-60
2022/03/10 02:51:09;;;;;;;26.53;11.83;;;4.20;99.90;;;;;;5036742;28;20476;-64
2022/03/10 02:53:35;;;;;;;19.80;11.23;;;4.20;99.90;;;;;;5041271;28;20468;-47
2022/03/10 02:56:02;;;;;;;23.17;11.57;;;4.20;99.90;;;;;;5059709;28;20428;-48
2022/03/10 02:58:33;;;;;;;24.53;12.57;;;4.20;99.90;;;;;;5059329;28;20444;-50
2022/03/10 03:00:59;;;;;;;23.20;12.47;;;4.10;99.90;;;;;;5059892;28;20439;-50
2022/03/10 03:03:26;;;;;;;23.03;10.80;;;4.10;99.90;;;;;;5059763;28;20456;-45
2022/03/10 03:05:52;;;;;;;18.60;11.00;;;4.10;99.90;;;;;;5059663;28;20421;-43
2022/03/10 03:08:20;;;;;;;18.80;10.27;;;4.10;99.90;;;;;;5059539;28;20447;-51
2022/03/10 03:10:46;;;;;;;19.40;10.07;;;4.10;99.90;;;;;;5059613;28;20484;-45
2022/03/10 03:13:13;;;;;;;20.10;8.97;;;4.00;99.90;;;;;;5059404;28;20463;-45
2022/03/10 03:15:41;;;;;;;20.47;9.70;;;4.00;99.90;;;;;;5059355;28;20504;-46
2022/03/10 03:18:08;;;;;;;25.10;10.93;;;3.90;99.90;;;;;;5059300;28;20467;-48
2022/03/10 03:20:35;;;;;;;18.43;10.90;;;3.90;99.90;;;;;;5059283;28;20412;-45
2022/03/10 03:23:01;;;;;;;16.60;9.90;;;3.80;99.90;;;;;;5059313;28;20432;-47
2022/03/10 03:25:28;;;;;;;23.53;10.57;;;3.80;99.90;;;;;;5059198;28;20420;-49
2022/03/10 03:27:55;;;;;;;21.33;10.43;;;3.80;99.90;;;;;;5059127;28;20483;-48
2022/03/10 03:30:21;;;;;;;27.67;11.47;;;3.80;99.90;;;;;;5059307;28;20447;-52
2022/03/10 03:32:50;;;;;;;20.77;11.00;;;3.90;99.90;;;;;;5056937;28;20474;-54
2022/03/10 03:35:16;;;;;;;16.60;10.60;;;3.80;99.90;;;;;;5055878;28;20433;-57
2022/03/10 03:37:43;;;;;;;22.00;11.70;;;3.80;99.90;;;;;;5055798;28;20479;-55
2022/03/10 03:40:11;;;;;;;16.83;10.40;;;3.80;99.90;;;;;;5055565;28;20464;-59
2022/03/10 03:42:38;;;;;;;26.57;9.17;;;3.80;99.90;;;;;;5056114;28;20452;-56
2022/03/10 03:45:06;;;;;;;16.13;9.40;;;3.80;99.90;;;;;;5055329;28;20436;-56
2022/03/10 03:47:33;;;;;;;19.77;10.10;;;3.80;99.90;;;;;;5055994;28;20440;-55
2022/03/10 03:50:01;;;;;;;28.73;10.80;;;3.80;99.90;;;;;;5056609;28;20431;-57
2022/03/10 03:52:28;;;;;;;20.53;10.43;;;3.80;99.90;;;;;;5056131;28;20487;-56
2022/03/10 03:54:55;;;;;;;21.90;10.13;;;3.70;99.90;;;;;;5055575;28;20436;-54
2022/03/10 03:57:22;;;;;;;24.83;10.87;;;3.70;99.90;;;;;;5056136;28;20444;-52
2022/03/10 03:59:48;;;;;;;17.93;10.87;;;3.70;99.90;;;;;;5055512;28;20432;-56
2022/03/10 04:02:18;;;;;;;21.23;9.70;;;3.70;99.90;;;;;;5055913;28;20437;-51
2022/03/10 04:04:45;;;;;;;21.73;11.00;;;3.70;99.90;;;;;;5056068;28;20460;-53
2022/03/10 04:07:14;;;;;;;17.77;9.10;;;3.70;99.90;;;;;;5056426;28;20503;-54
2022/03/10 04:09:41;;;;;;;15.53;8.90;;;3.60;99.90;;;;;;5054899;28;20448;-58
2022/03/10 04:12:08;;;;;;;22.63;10.73;;;3.60;99.90;;;;;;5055051;28;20404;-62
2022/03/10 04:14:35;;;;;;;25.13;12.40;;;3.60;99.90;;;;;;5055660;28;20462;-58
2022/03/10 04:17:02;;;;;;;16.47;9.57;;;3.50;99.90;;;;;;5053653;28;20831;-58
2022/03/10 04:19:29;;;;;;;17.60;10.63;;;3.50;99.90;;;;;;5049379;28;20425;-59
2022/03/10 04:21:56;;;;;;;24.00;10.93;;;3.20;99.90;;;;;;5034262;28;20448;-58
2022/03/10 04:24:24;;;;;;;20.03;10.60;;;3.40;99.90;;;;;;5034147;28;20443;-58
2022/03/10 04:26:51;;;;;;;18.37;10.50;;;3.40;99.90;;;;;;5034511;28;20468;-59
2022/03/10 04:29:17;;;;;;;19.77;9.43;;;3.30;99.90;;;;;;5034491;28;20598;-59
2022/03/10 04:31:44;;;;;;;23.67;11.20;;;3.30;99.90;;;;;;5034631;28;20542;-60
2022/03/10 04:34:11;;;;;;;20.33;11.60;;;3.30;99.90;;;;;;5034508;28;20475;-58
2022/03/10 04:36:38;;;;;;;19.20;8.90;;;3.30;99.90;;;;;;5034748;28;20873;-56
2022/03/10 04:39:05;;;;;;;19.47;9.20;;;3.30;99.90;;;;;;5034479;28;20440;-59
2022/03/10 04:41:34;;;;;;;25.47;10.80;;;3.30;99.90;;;;;;5034374;28;20471;-61
2022/03/10 04:44:01;;;;;;;15.70;9.40;;;3.30;99.90;;;;;;5034126;28;20464;-56
2022/03/10 04:46:28;;;;;;;18.07;9.03;;;3.30;99.90;;;;;;5033912;28;20497;-58
2022/03/10 04:48:54;;;;;;;25.17;11.37;;;3.20;99.90;;;;;;5034428;28;20428;-60
2022/03/10 04:51:21;;;;;;;26.10;9.93;;;3.20;99.90;;;;;;5034436;28;20495;-60
2022/03/10 04:53:48;;;;;;;23.40;10.60;;;3.20;99.90;;;;;;5034151;28;20804;-58
2022/03/10 04:56:15;;;;;;;25.33;11.43;;;3.20;99.90;;;;;;5034369;28;20829;-60
2022/03/10 04:58:43;;;;;;;27.00;10.00;;;3.30;99.90;;;;;;5034787;28;21139;-60
2022/03/10 05:01:11;;;;;;;18.90;10.40;;;3.20;99.90;;;;;;5035674;28;20457;-64
2022/03/10 05:03:38;;;;;;;17.27;10.50;;;3.20;99.90;;;;;;5034592;28;20468;-60
2022/03/10 05:06:05;;;;;;;27.30;11.50;;;3.20;99.90;;;;;;5034082;28;20468;-59
2022/03/10 05:08:31;;;;;;;19.97;10.03;;;3.20;99.90;;;;;;5034212;28;20773;-60
2022/03/10 05:10:58;;;;;;;29.13;12.67;;;3.20;99.90;;;;;;5034290;28;20476;-59
2022/03/10 05:13:25;;;;;;;17.40;9.50;;;3.10;99.90;;;;;;5034267;28;20503;-60
2022/03/10 05:15:53;;;;;;;21.23;11.30;;;3.10;99.90;;;;;;5033892;28;20444;-54
2022/03/10 05:18:20;;;;;;;22.20;10.90;;;3.00;99.90;;;;;;5033807;28;20463;-58
2022/03/10 05:20:48;;;;;;;26.57;10.20;;;3.00;99.90;;;;;;5034118;28;20439;-58
2022/03/10 05:23:14;;;;;;;14.67;9.73;;;3.00;99.90;;;;;;5037558;28;20468;-57
2022/03/10 05:25:42;;;;;;;21.57;10.97;;;3.00;99.90;;;;;;5037948;28;20489;-56
2022/03/10 05:28:13;;;;;;;23.20;10.37;;;2.90;99.90;;;;;;5037765;28;20482;-57
2022/03/10 05:30:39;;;;;;;23.23;10.10;;;2.90;99.90;;;;;;5037565;28;20436;-61
2022/03/10 05:33:07;;;;;;;16.77;9.80;;;2.90;99.90;;;;;;5039148;28;20486;-61
2022/03/10 05:35:34;;;;;;;16.00;8.47;;;2.90;99.90;;;;;;5038047;28;20468;-59
2022/03/10 05:38:01;;;;;;;21.37;11.10;;;2.90;99.90;;;;;;5037692;28;20914;-58
2022/03/10 05:40:28;;;;;;;29.70;12.00;;;2.90;99.90;;;;;;5037526;28;20537;-58
2022/03/10 05:42:56;;;;;;;22.30;11.80;;;2.90;99.90;;;;;;5037083;28;20479;-58
2022/03/10 05:45:26;;;;;;;18.83;12.00;;;2.90;99.90;;;;;;5037419;28;20448;-59
2022/03/10 05:47:55;;;;;;;20.70;9.73;;;2.70;99.90;;;;;;5037321;28;20488;-60
2022/03/10 05:50:25;;;;;;;21.57;11.10;;;3.00;99.90;;;;;;5037449;28;20510;-59
2022/03/10 05:52:52;;;;;;;19.60;10.40;;;3.00;99.90;;;;;;5036938;28;20483;-60
2022/03/10 05:55:20;;;;;;;28.30;10.53;;;3.80;99.90;;;;;;5037284;28;20983;-59
2022/03/10 05:57:46;;;;;;;16.00;10.47;;;2.90;99.90;;;;;;5037027;28;20475;-60
2022/03/10 06:00:14;;;;;;;18.43;8.83;;;2.80;99.90;;;;;;5037160;28;20468;-56
2022/03/10 06:02:41;;;;;;;19.33;11.60;;;2.90;99.90;;;;;;5036823;28;20453;-60
2022/03/10 06:05:09;;;;;;;26.10;11.07;;;2.80;99.90;;;;;;5037111;28;20444;-59
2022/03/10 06:07:38;;;;;;;31.73;10.90;;;2.80;99.90;;;;;;5037042;28;20455;-60
2022/03/10 06:10:06;;;;;;;26.27;11.53;;;2.70;99.90;;;;;;5036991;28;20448;-59
2022/03/10 06:12:33;;;;;;;24.60;11.73;;;2.70;99.90;;;;;;5036558;28;20538;-57
2022/03/10 06:15:02;;;;;;;21.27;11.53;;;2.70;99.90;;;;;;5038078;28;20456;-63
2022/03/10 06:17:30;;;;;;;23.43;11.47;;;2.70;99.90;;;;;;5036947;28;20537;-59
2022/03/10 06:19:57;;;;;;;23.60;13.10;;;2.70;99.90;;;;;;5036858;28;20448;-59
2022/03/10 06:22:25;;;;;;;24.53;10.30;;;2.70;99.90;;;;;;5036823;28;20471;-59
2022/03/10 06:24:53;;;;;;;19.83;12.00;;;2.80;99.90;;;;;;5036530;28;20935;-59
2022/03/10 06:27:22;;;;;;;23.17;10.40;;;2.80;99.90;;;;;;5036426;28;20463;-60
2022/03/10 06:29:50;;;;;;;23.50;11.67;;;2.80;99.90;;;;;;5036627;28;20462;-59
2022/03/10 06:32:18;;;;;;;27.37;12.70;;;2.90;99.90;;;;;;5035873;28;20445;-59
2022/03/10 06:34:45;;;;;;;20.70;11.73;;;2.90;99.90;;;;;;5036285;28;20506;-59
2022/03/10 06:37:13;;;;;;;35.33;11.20;;;2.90;99.90;;;;;;5036075;28;20502;-58
2022/03/10 06:39:40;;;;;;;25.13;12.10;;;3.00;99.90;;;;;;5036033;28;20468;-59
2022/03/10 06:42:09;;;;;;;25.87;11.97;;;3.00;99.90;;;;;;5036375;28;20468;-59
2022/03/10 06:44:36;;;;;;;28.43;14.30;;;3.10;99.90;;;;;;5035975;28;20479;-59
2022/03/10 06:47:04;;;;;;;19.47;12.23;;;3.10;99.90;;;;;;5036321;28;20424;-59
2022/03/10 06:49:31;;;;;;;27.97;12.30;;;3.10;99.90;;;;;;5036255;28;20440;-56
2022/03/10 06:51:57;;;;;;;27.80;15.60;;;3.20;99.90;;;;;;5036227;28;20471;-55
2022/03/10 06:54:24;;;;;;;26.53;12.60;;;3.20;99.90;;;;;;5036181;28;20488;-61
2022/03/10 06:56:52;;;;;;;23.30;10.40;;;3.20;99.90;;;;;;5037041;28;20468;-60
2022/03/10 06:59:20;;;;;;;32.57;13.83;;;3.30;99.90;;;;;;5036473;28;20452;-58
2022/03/10 07:01:47;;;;;;;26.70;13.90;;;3.30;99.90;;;;;;5035975;28;20935;-58
2022/03/10 07:04:13;;;;;;;22.50;11.90;;;3.30;99.90;;;;;;5035924;28;20456;-60
2022/03/10 07:06:40;;;;;;;23.43;12.80;;;3.50;99.90;;;;;;5035903;28;20467;-53
2022/03/10 07:09:07;;;;;;;23.53;13.40;;;3.50;99.90;;;;;;5035540;28;20915;-55
2022/03/10 07:11:33;;;;;;;24.50;12.17;;;3.60;99.90;;;;;;5036644;28;20448;-59
2022/03/10 07:14:00;;;;;;;23.03;15.10;;;3.60;99.90;;;;;;5043393;28;20550;-58
2022/03/10 07:16:28;;;;;;;30.00;13.27;;;3.70;99.90;;;;;;5043599;28;20452;-56
2022/03/10 07:18:55;;;;;;;35.33;13.30;;;3.70;99.90;;;;;;5042635;28;20480;-58
2022/03/10 07:21:25;;;;;;;28.20;12.43;;;3.80;99.90;;;;;;5042502;28;20501;-61
2022/03/10 07:23:51;;;;;;;28.07;12.80;;;3.90;99.90;;;;;;5042391;28;20460;-59
2022/03/10 07:26:20;;;;;;;31.07;12.20;;;3.90;99.90;;;;;;5042006;28;20432;-58
2022/03/10 07:28:48;;;;;;;32.10;13.90;;;4.00;99.90;;;;;;5042018;28;20851;-58
2022/03/10 07:31:15;;;;;;;23.80;12.43;;;4.00;99.90;;;;;;5041406;28;20945;-53
2022/03/10 07:33:43;;;;;;;42.97;13.03;;;4.10;99.90;;;;;;5041290;28;20480;-57
2022/03/10 07:36:10;;;;;;;30.50;12.87;;;4.20;99.90;;;;;;5036585;28;20479;-59
2022/03/10 07:38:37;;;;;;;24.40;12.63;;;4.30;99.90;;;;;;5033307;28;20506;-59
2022/03/10 07:41:03;;;;;;;23.23;12.80;;;4.40;99.90;;;;;;5041567;28;20467;-56
2022/03/10 07:43:30;;;;;;;25.37;13.73;;;4.50;99.90;;;;;;5022268;28;20437;-60
2022/03/10 07:45:57;;;;;;;27.60;13.77;;;4.60;99.90;;;;;;5035821;28;20468;-60
2022/03/10 07:48:23;;;;;;;20.20;12.30;;;4.70;99.90;;;;;;5041783;28;20859;-59
2022/03/10 07:50:52;;;;;;;22.73;11.77;;;4.70;99.90;;;;;;5041841;28;20468;-60
2022/03/10 07:53:19;;;;;;;31.13;12.90;;;4.80;99.90;;;;;;5051356;28;20433;-60
2022/03/10 07:55:46;;;;;;;21.50;12.27;;;4.90;99.90;;;;;;5037674;28;20502;-55
2022/03/10 07:58:13;;;;;;;22.77;12.30;;;4.90;99.90;;;;;;5036206;28;20464;-61
2022/03/10 08:00:41;;;;;;;28.97;14.27;;;5.00;99.90;;;;;;5043460;28;20436;-55
2022/03/10 08:03:08;;;;;;;28.10;13.50;;;5.20;99.90;;;;;;5035799;28;20496;-55
2022/03/10 08:05:35;;;;;;;19.63;12.07;;;5.30;99.90;;;;;;5052391;28;20424;-61
2022/03/10 08:08:03;;;;;;;27.67;10.97;;;5.40;99.90;;;;;;5042943;28;20512;-60
2022/03/10 08:10:30;;;;;;;25.43;10.50;;;5.50;99.90;;;;;;5034872;28;20465;-55
2022/03/10 08:12:59;;;;;;;30.37;13.73;;;5.50;99.90;;;;;;5169413;22;20551;-53
2022/03/10 08:15:28;;;;;;;18.83;12.43;;;5.60;99.90;;;;;;5093181;28;20489;-56
2022/03/10 08:17:57;;;;;;;19.90;11.60;;;5.70;99.90;;;;;;5094141;28;20429;-55
2022/03/10 08:20:24;;;;;;;24.00;14.47;;;5.80;99.90;;;;;;5094921;28;20438;-54
2022/03/10 08:22:51;;;;;;;22.30;12.27;;;5.90;99.90;;;;;;5094337;28;20506;-55
2022/03/10 08:25:19;;;;;;;24.00;15.80;;;5.90;99.90;;;;;;5094291;28;20462;-54
2022/03/10 08:27:47;;;;;;;20.03;11.67;;;6.10;99.90;;;;;;5093995;28;20476;-60
2022/03/10 08:30:14;;;;;;;27.33;12.80;;;6.10;99.90;;;;;;5094077;28;20430;-60
2022/03/10 08:32:41;;;;;;;25.60;13.03;;;6.20;99.90;;;;;;5094015;28;20447;-57
2022/03/10 08:35:11;;;;;;;26.97;12.87;;;6.30;99.90;;;;;;5093967;28;20493;-58
2022/03/10 08:37:38;;;;;;;23.70;12.63;;;6.40;99.90;;;;;;5093652;28;20465;-55
2022/03/10 08:40:06;;;;;;;25.13;14.37;;;6.50;99.90;;;;;;5090125;28;20458;-57
2022/03/10 08:42:34;;;;;;;19.40;13.30;;;6.60;99.90;;;;;;5093825;28;20455;-59
2022/03/10 08:45:01;;;;;;;24.77;12.83;;;6.60;99.90;;;;;;5093853;28;20454;-60
2022/03/10 08:47:29;;;;;;;20.90;12.43;;;6.70;99.90;;;;;;5094041;28;20519;-57
2022/03/10 08:49:55;;;;;;;27.13;13.47;;;6.90;99.90;;;;;;5094278;28;20423;-57
2022/03/10 08:52:22;;;;;;;23.27;13.10;;;7.00;99.90;;;;;;5094408;28;20506;-56
2022/03/10 08:54:49;;;;;;;34.90;14.53;;;7.20;99.90;;;;;;5094520;28;20475;-55
2022/03/10 08:57:16;;;;;;;32.97;14.80;;;7.40;99.90;;;;;;5097874;28;20459;-55
2022/03/10 08:59:45;;;;;;;25.10;13.57;;;7.90;99.90;;;;;;5097907;28;20444;-58
2022/03/10 09:02:12;;;;;;;24.50;13.80;;;9.20;99.90;;;;;;5097859;28;20466;-61
2022/03/10 09:04:39;;;;;;;23.83;13.63;;;11.10;99.90;;;;;;5098706;28;20964;-61
2022/03/10 09:07:07;;;;;;;25.03;14.87;;;13.00;99.90;;;;;;5098949;28;20422;-56
2022/03/10 09:09:34;;;;;;;31.80;13.90;;;14.20;99.60;;;;;;5099094;28;20449;-57
2022/03/10 09:12:01;;;;;;;25.90;14.33;;;15.70;92.50;;;;;;5098971;28;20494;-51
2022/03/10 09:14:28;;;;;;;25.17;14.60;;;16.80;85.00;;;;;;5098647;28;20454;-57
2022/03/10 09:16:56;;;;;;;29.30;16.73;;;18.00;75.00;;;;;;5098354;28;20446;-60
2022/03/10 09:19:23;;;;;;;20.63;14.97;;;18.70;65.80;;;;;;5098771;28;20430;-55
2022/03/10 09:21:51;;;;;;;23.70;14.60;;;19.10;62.10;;;;;;5098538;28;20475;-57
2022/03/10 09:24:18;;;;;;;23.10;13.10;;;19.50;59.00;;;;;;5098127;28;20447;-60
2022/03/10 09:26:45;;;;;;;20.07;14.30;;;20.00;57.40;;;;;;5098098;28;20449;-55
2022/03/10 09:29:12;;;;;;;22.10;16.43;;;20.50;55.50;;;;;;5097778;28;20455;-59
2022/03/10 09:31:39;;;;;;;26.00;15.63;;;20.60;54.20;;;;;;5098082;28;20446;-56
2022/03/10 09:34:08;;;;;;;26.27;15.23;;;20.10;53.80;;;;;;5097890;28;20515;-56
2022/03/10 09:36:38;;;;;;;24.50;15.03;;;19.00;54.80;;;;;;5097661;28;20478;-59
2022/03/10 09:39:04;;;;;;;26.40;13.90;;;17.80;56.60;;;;;;5097604;28;20426;-59
2022/03/10 09:41:33;;;;;;;23.60;14.53;;;16.50;59.60;;;;;;5097474;28;20430;-58
2022/03/10 09:44:00;;;;;;;22.83;13.67;;;15.50;62.50;;;;;;5097542;28;20450;-55
2022/03/10 09:46:27;;;;;;;23.40;13.00;;;14.70;65.70;;;;;;5097031;28;20477;-59
2022/03/10 09:48:54;;;;;;;21.20;12.87;;;14.20;68.80;;;;;;5096142;28;20438;-54
2022/03/10 09:51:23;;;;;;;25.37;13.00;;;14.30;71.00;;;;;;5097052;28;20434;-53
2022/03/10 09:53:49;;;;;;;21.03;13.53;;;15.10;69.50;;;;;;5096695;28;20673;-57
2022/03/10 09:56:19;;;;;;;25.37;14.73;;;15.90;68.00;;;;;;5097183;28;20446;-56
2022/03/10 09:58:49;;;;;;;24.07;14.27;;;16.90;65.80;;;;;;5097703;28;20466;-60
2022/03/10 10:01:17;;;;;;;19.57;13.50;;;17.70;62.60;;;;;;5097251;28;20458;-56
2022/03/10 10:03:44;;;;;;;25.93;15.60;;;18.40;61.00;;;;;;5097738;28;20438;-57
2022/03/10 10:06:11;;;;;;;21.37;14.03;;;19.10;59.10;;;;;;5097070;28;20434;-56
2022/03/10 10:08:41;;;;;;;24.30;13.83;;;19.60;57.50;;;;;;5097203;28;20502;-52
2022/03/10 10:11:08;;;;;;;18.50;12.50;;;19.70;56.70;;;;;;5097815;28;20525;-58
2022/03/10 10:13:39;;;;;;;22.53;15.80;;;19.90;56.10;;;;;;5097938;28;20449;-52
2022/03/10 10:16:08;;;;;;;26.03;13.10;;;20.00;55.70;;;;;;5096719;28;20482;-57
2022/03/10 10:18:38;;;;;;;24.47;14.33;;;20.10;55.20;;;;;;5097484;28;20429;-59
2022/03/10 10:21:06;;;;;;;20.70;14.67;;;20.00;55.30;;;;;;5080059;28;20429;-60
2022/03/10 10:23:34;;;;;;;20.73;15.00;;;20.00;54.90;;;;;;5076774;28;20483;-60
2022/03/10 10:26:04;;;;;;;22.43;14.23;;;19.60;55.60;;;;;;5076584;28;20446;-59
2022/03/10 10:28:34;;;;;;;21.47;13.77;;;19.40;55.50;;;;;;5076961;28;20485;-59
2022/03/10 10:31:03;;;;;;;25.73;12.63;;;18.40;56.50;;;;;;5077294;28;20438;-59
2022/03/10 10:33:32;;;;;;;24.43;13.47;;;17.10;58.20;;;;;;5077503;28;20450;-60
2022/03/10 10:36:13;;;;;;;22.97;13.27;;;16.20;60.30;;;;;;5076875;28;20482;-59
2022/03/10 10:38:41;;;;;;;20.37;13.00;;;15.40;63.80;;;;;;5077651;28;20423;-63
2022/03/10 10:41:23;;;;;;;19.83;12.87;;;15.50;64.60;;;;;;5077767;28;20765;-59
2022/03/10 10:43:53;;;;;;;21.57;11.67;;;16.00;65.40;;;;;;5078245;28;20530;-60
2022/03/10 10:46:24;;;;;;;22.03;11.77;;;16.70;63.70;;;;;;5078538;28;20478;-61
2022/03/10 10:48:51;;;;;;;18.23;12.77;;;17.40;61.80;;;;;;5077777;28;20835;-61
2022/03/10 10:51:33;;;;;;;16.87;12.23;;;17.60;60.20;;;;;;5076667;28;20455;-60
2022/03/10 10:54:01;;;;;;;21.03;12.50;;;17.70;59.80;;;;;;5076445;28;20447;-60
2022/03/10 10:56:30;;;;;;;20.93;13.63;;;17.40;59.40;;;;;;5077243;28;20903;-59
2022/03/10 10:58:57;;;;;;;17.07;12.03;;;16.80;59.80;;;;;;5077053;28;20467;-60
2022/03/10 11:01:32;;;;;;;19.00;11.77;;;15.90;61.60;;;;;;5078620;28;20481;-53
2022/03/10 11:03:59;;;;;;;18.50;12.53;;;15.20;63.70;;;;;;5077320;28;20441;-61
2022/03/10 11:06:26;;;;;;;18.10;11.83;;;14.90;64.90;;;;;;5094514;28;20438;-55
2022/03/10 11:08:53;;;;;;;17.13;10.20;;;14.60;64.60;;;;;;5096281;28;20435;-55
2022/03/10 11:11:23;;;;;;;21.60;12.13;;;14.00;65.70;;;;;;5096249;28;20911;-55
2022/03/10 11:13:51;;;;;;;15.20;10.30;;;13.80;68.40;;;;;;5095977;28;20470;-58
2022/03/10 11:16:19;;;;;;;18.67;11.77;;;13.50;69.30;;;;;;5096312;28;20470;-58
2022/03/10 11:18:49;;;;;;;23.27;11.30;;;13.30;69.40;;;;;;5096069;28;20439;-59
2022/03/10 11:21:31;;;;;;;15.83;9.73;;;13.10;70.70;;;;;;5096177;28;20439;-55
2022/03/10 11:24:10;;;;;;;15.00;9.30;;;13.10;70.00;;;;;;5095178;28;20450;-58
2022/03/10 11:26:44;;;;;;;24.63;10.13;;;12.90;70.20;;;;;;5096080;28;20466;-58
2022/03/10 11:29:20;;;;;;;20.57;9.40;;;12.60;71.60;;;;;;5093993;28;20453;-58
2022/03/10 11:31:47;;;;;;;17.10;9.63;;;12.40;72.10;;;;;;5095271;28;20418;-51
2022/03/10 11:34:45;;;;;;;10.97;8.03;;;12.30;73.10;;;;;;5091919;28;20474;-57
2022/03/10 11:37:14;;;;;;;13.80;9.37;;;12.00;74.40;;;;;;5090203;28;20453;-59
2022/03/10 11:39:54;;;;;;;13.10;9.37;;;11.70;75.80;;;;;;5095510;28;20518;-57
2022/03/10 11:42:29;;;;;;;13.77;8.97;;;11.50;76.20;;;;;;5095490;28;20431;-58
2022/03/10 11:45:11;;;;;;;21.17;12.07;;;11.30;77.80;;;;;;5094870;28;20454;-56
2022/03/10 11:47:39;;;;;;;16.63;9.80;;;11.10;79.40;;;;;;5090880;28;20471;-58
2022/03/10 11:50:28;;;;;;;18.90;11.23;;;11.00;80.80;;;;;;5095666;28;20463;-56
2022/03/10 11:53:01;;;;;;;22.00;11.30;;;10.80;82.40;;;;;;5095976;28;20498;-58
2022/03/10 11:55:43;;;;;;;14.53;9.77;;;10.70;83.60;;;;;;5094989;28;20506;-54
2022/03/10 11:58:11;;;;;;;15.97;9.57;;;10.70;83.60;;;;;;5095830;28;20447;-54
2022/03/10 12:00:53;;;;;;;16.30;9.10;;;10.80;84.90;;;;;;5094621;28;20449;-55
2022/03/10 12:03:21;;;;;;;21.97;10.10;;;10.90;86.50;;;;;;5094920;28;20466;-53
2022/03/10 12:05:55;;;;;;;12.20;7.73;;;11.10;85.50;;;;;;5094934;28;20435;-54
2022/03/10 12:08:23;;;;;;;17.63;8.60;;;11.30;84.20;;;;;;5094580;28;20479;-59
2022/03/10 12:10:51;;;;;;;10.57;8.03;;;11.30;82.60;;;;;;5094690;28;20415;-58
2022/03/10 12:13:27;;;;;;;17.63;9.57;;;11.20;83.00;;;;;;5094932;28;20439;-58
2022/03/10 12:15:58;;;;;;;17.90;9.33;;;11.30;83.50;;;;;;5095220;28;20470;-54
2022/03/10 12:18:29;;;;;;;13.80;9.37;;;11.30;82.90;;;;;;5094779;28;20502;-60
2022/03/10 12:20:57;;;;;;;14.90;8.87;;;11.40;81.80;;;;;;5094660;28;20437;-56
2022/03/10 12:23:26;;;;;;;14.43;8.87;;;11.40;81.50;;;;;;5094930;28;20457;-59
2022/03/10 12:25:57;;;;;;;13.63;9.00;;;11.40;80.70;;;;;;5095116;28;20454;-51
2022/03/10 12:28:31;;;;;;;16.50;8.30;;;11.40;81.10;;;;;;5095466;28;20564;-56
2022/03/10 12:31:11;;;;;;;14.53;9.97;;;11.40;81.50;;;;;;5095067;28;20476;-57
2022/03/10 12:33:50;;;;;;;16.03;9.33;;;11.30;82.20;;;;;;5095746;28;20442;-56
2022/03/10 12:36:28;;;;;;;17.50;9.70;;;11.40;82.10;;;;;;5095552;28;20513;-51
2022/03/10 12:38:56;;;;;;;15.67;9.43;;;11.50;82.20;;;;;;5095295;28;20426;-57
2022/03/10 12:41:28;;;;;;;18.93;9.90;;;11.50;81.50;;;;;;5095596;28;20485;-60
2022/03/10 12:43:55;;;;;;;19.87;10.13;;;11.60;81.40;;;;;;5095609;28;20427;-64
2022/03/10 12:46:25;;;;;;;14.43;9.73;;;11.60;80.50;;;;;;5091890;28;20447;-59